Pagrindinis puslapis
METAR-TAF:

METAR-TAF

Oro uostai :

Širazas, Iranas

platuma: 29-32N, ilguma: 052-35E, Aukštis: 1486 m

Dabartinis oras

Ataskaita buvo paskelbta 23 minutes, ne 22:30 UTC
Ramus vėjas
Temperatūra 24°C
Drėgmė 24%
Slėgis 1015 hPa
Matomumas 10 km arba daugiau
Išsisklaidę debesys ne aukštis 4000 ft

METAR: OISS 052230Z 00000KT 9999 SCT040 24/02 Q1014 A2997

Laikas: 03:23 (22:53 UTC)

Prognozė

Ataskaita buvo paskelbta 5 valandos ir 23 minutes, ne 17:30 UTC
Prognozė galioja nuo 05 metu 18 UTC su 06 metu 24 UTC
Vėjas 8 kt iš Šiaurės Vakarų
Matomumas: 8000 m
Mažai debesys ne aukštis 4000 ft

TAF: OISS 051730Z 0518/0624 31008KT 8000 FEW040

Orai ataskaitas ir orų prognozės (METAR, TAF).

turimą stotys yra geltonos ir raudonos taškus žemėlapyje.

Perkelti pele per norėdami pamatyti stoties vardą.

Tada spustelėkite, norėdami matyti oro stebėjimo ir prognozės.

Norėdami pakeisti žemėlapį: spustelėkite ant žalios mygtukų su juodo kryžiaus žemyn,; žalią mygtuką su brūkšneliu, jei norite nutolinti; arba žalių rodyklių gretimoms žemėlapius.


METAR-TAF: